Ariadna — ZGBE5 — position and weather

sailwx.info

Track history (hours):
 
Tides and Currents Weather Stations Pressure Air Temp Water Temp Dewpoint Dewpoint Depression Visibility Wind Speed Wind Dir Waves Ship Positions

Ariadna

Last reported at 2015-May-29 09:33 UTC. Time now 2015-May-29 10:18 UTC.
Position N 43°31' E 007°01'.

Length 47 m; draft 3.1 m.

Type: Pleasure craft. MMSI: 319026100.

Date/timePositionNaut miles runAvg speedWind from/ knotsBaromVisibWave heightAir tempDewpointWater temp
2015-May-29 09:33N 43°31' E 007°01'1 1.1
2015-May-29 08:28N 43°32' E 007°03'0 0.0
2015-May-29 07:16N 43°32' E 007°03'0 0.0
2015-May-29 06:28N 43°32' E 007°03'0 0.0
2015-May-29 05:28N 43°32' E 007°03'0 0.0
2015-May-29 04:28N 43°32' E 007°03'0 0.0
2015-May-29 03:28N 43°32' E 007°03'0 0.0
2015-May-29 02:28N 43°32' E 007°03'0 0.0
2015-May-29 01:28N 43°32' E 007°03'0 0.0
2015-May-29 00:22N 43°32' E 007°03'0 0.0
2015-May-28 22:28N 43°32' E 007°03'1 1.3
2015-May-28 21:33N 43°32' E 007°04'9 8.5
2015-May-28 20:33N 43°39' E 007°11'0 0.0
2015-May-28 19:33N 43°39' E 007°11'0 0.0
2015-May-28 18:33N 43°39' E 007°11'3 3.4
2015-May-28 17:33N 43°38' E 007°15'  
2015-May-25 18:03N 43°43' E 007°25'0 0.0
2015-May-25 17:33N 43°43' E 007°25'0 0.0
2015-May-25 16:21N 43°43' E 007°25'0 0.0
2015-May-25 15:33N 43°43' E 007°25'0 0.0
2015-May-25 13:09N 43°43' E 007°25'0 0.0
2015-May-25 10:18N 43°43' E 007°25'0 0.0
2015-May-23 12:03N 43°43' E 007°25'0 0.0
2015-May-22 05:33N 43°43' E 007°25'0 0.0
2015-May-22 04:33N 43°43' E 007°25'0 0.0
2015-May-22 03:15N 43°43' E 007°25'0 0.0
2015-May-22 02:33N 43°43' E 007°25'0 0.0
2015-May-22 00:09N 43°43' E 007°25'0 0.0
2015-May-21 22:21N 43°43' E 007°25'0 0.0
2015-May-21 06:03N 43°43' E 007°25'0 0.0
2015-May-20 19:03N 43°43' E 007°25'0 0.0
2015-May-20 16:27N 43°43' E 007°25'  
Track history (hours):
 
Tides and Currents Weather Stations Pressure Air Temp Water Temp Dewpoint Dewpoint Depression Visibility Wind Speed Wind Dir Waves Ship Positions

Ariadna

Last reported at 2015-May-29 09:33 UTC. Time now 2015-May-29 10:18 UTC.
Position N 43°31' E 007°01'.

Length 47 m; draft 3.1 m.

Type: Pleasure craft. MMSI: 319026100.

Date/timePositionNaut miles runAvg speedWind from/ knotsBaromVisibWave heightAir tempDewpointWater temp
2015-May-29 09:33N 43°31' E 007°01'1 1.1
2015-May-29 08:28N 43°32' E 007°03'0 0.0
2015-May-29 07:16N 43°32' E 007°03'0 0.0
2015-May-29 06:28N 43°32' E 007°03'0 0.0
2015-May-29 05:28N 43°32' E 007°03'0 0.0
2015-May-29 04:28N 43°32' E 007°03'0 0.0
2015-May-29 03:28N 43°32' E 007°03'0 0.0
2015-May-29 02:28N 43°32' E 007°03'0 0.0
2015-May-29 01:28N 43°32' E 007°03'0 0.0
2015-May-29 00:22N 43°32' E 007°03'0 0.0
2015-May-28 22:28N 43°32' E 007°03'1 1.3
2015-May-28 21:33N 43°32' E 007°04'9 8.5
2015-May-28 20:33N 43°39' E 007°11'0 0.0
2015-May-28 19:33N 43°39' E 007°11'0 0.0
2015-May-28 18:33N 43°39' E 007°11'3 3.4
2015-May-28 17:33N 43°38' E 007°15'  
2015-May-25 18:03N 43°43' E 007°25'0 0.0
2015-May-25 17:33N 43°43' E 007°25'0 0.0
2015-May-25 16:21N 43°43' E 007°25'0 0.0
2015-May-25 15:33N 43°43' E 007°25'0 0.0
2015-May-25 13:09N 43°43' E 007°25'0 0.0
2015-May-25 10:18N 43°43' E 007°25'0 0.0
2015-May-23 12:03N 43°43' E 007°25'0 0.0
2015-May-22 05:33N 43°43' E 007°25'0 0.0
2015-May-22 04:33N 43°43' E 007°25'0 0.0
2015-May-22 03:15N 43°43' E 007°25'0 0.0
2015-May-22 02:33N 43°43' E 007°25'0 0.0
2015-May-22 00:09N 43°43' E 007°25'0 0.0
2015-May-21 22:21N 43°43' E 007°25'0 0.0
2015-May-21 06:03N 43°43' E 007°25'0 0.0
2015-May-20 19:03N 43°43' E 007°25'0 0.0
2015-May-20 16:27N 43°43' E 007°25'  

Dump ship's entire track history